Latest Weather Observations for Creal Reef

IDQ60801

Issued at 10:32 pm EST Monday 25 January 2021 (issued every 10 minutes, with the page automatically refreshed every 10 minutes)

About weather observations | Map of weather stations | Latest weather observations for QLD | Other Formats
Station Details ID: 200736 Name: CREAL REEF Lat: -20.53 Lon: 150.38 Height: 1.7 m
Data from the previous 72 hours. | See also: Recent months for locations in Queensland
Date/Time
EST
Temp
°C
App
Temp
°C
Dew
Point
°C
Rel
Hum
%
Delta-T
°C
Wind Press
QNH
hPa
Press
MSL
hPa
Rain since
9am
mm
Dir  Spd
km/h
Gust
km/h
Spd
kts
Gust
kts
25/10:30pm 26.4 - - - - SE 26 33 14 18 1007.2 1007.1 -
25/10:00pm 27.2 - - - - SE 26 30 14 16 1007.2 1007.1 -
25/09:30pm 27.2 - - - - ESE 30 33 16 18 1007.1 1007.0 -
25/09:00pm 26.7 - - - - ESE 32 35 17 19 1006.8 1006.7 -
25/08:30pm 26.1 - - - - ESE 28 32 15 17 1006.7 1006.6 -
25/08:00pm 26.1 - - - - E 32 37 17 20 1006.5 1006.4 -
25/07:30pm 26.3 - - - - ESE 33 43 18 23 1006.4 1006.3 -
25/07:26pm 26.4 - - - - ESE 28 41 15 22 1006.4 1006.3 -
25/07:00pm 26.7 - - - - ESE 20 22 11 12 1006.1 1006.0 -
25/06:30pm 26.4 - - - - ESE 24 32 13 17 1006.0 1005.9 -
25/06:00pm 25.6 - - - - SSE 24 30 13 16 1005.7 1005.6 -
25/05:30pm 26.2 - - - - ESE 30 43 16 23 1005.4 1005.3 -
25/05:00pm 25.6 - - - - ESE 32 37 17 20 1005.2 1005.1 -
25/04:30pm 26.8 - - - - ESE 20 22 11 12 1005.2 1005.1 -
25/04:00pm 26.0 - - - - E 26 32 14 17 1005.2 1005.1 -
25/03:30pm 26.8 - - - - SSE 15 19 8 10 1005.3 1005.2 -
25/03:00pm 26.9 - - - - SSE 19 22 10 12 1005.6 1005.5 -
25/02:30pm 26.5 - - - - SE 19 22 10 12 1005.9 1005.8 -
25/02:00pm 25.2 - - - - SE 17 20 9 11 1006.1 1006.0 -
25/01:30pm 25.1 - - - - ESE 24 28 13 15 1006.5 1006.4 -
25/01:00pm 25.3 - - - - SSE 17 20 9 11 1006.7 1006.6 -
25/12:30pm 25.9 - - - - E 22 28 12 15 1007.2 1007.1 -
25/12:00pm 24.9 - - - - E 30 33 16 18 1007.6 1007.5 -
25/11:30am 27.1 - - - - SE 22 26 12 14 1007.6 1007.5 -
25/11:00am 27.2 - - - - SE 19 20 10 11 1008.0 1007.9 -
25/10:30am 27.2 - - - - SE 19 20 10 11 1008.2 1008.1 -
25/10:00am 27.3 - - - - SE 17 20 9 11 1008.4 1008.3 -
25/09:30am 27.1 - - - - ESE 17 20 9 11 1008.3 1008.2 -
25/09:00am 27.0 - - - - SE 20 24 11 13 1008.3 1008.2 -
25/08:30am 26.8 - - - - SE 24 28 13 15 1008.1 1008.0 -
25/08:00am 26.9 - - - - SE 20 26 11 14 1008.0 1007.9 -
25/07:30am 26.9 - - - - ESE 17 19 9 10 1007.8 1007.7 -
25/07:00am 26.8 - - - - SE 17 20 9 11 1007.7 1007.6 -
25/06:30am 26.6 - - - - ESE 17 19 9 10 1007.5 1007.4 -
25/06:00am 26.6 - - - - ESE 17 19 9 10 1007.2 1007.1 -
25/05:30am 26.6 - - - - ESE 20 20 11 11 1007.1 1007.0 -
25/05:00am 26.5 - - - - ESE 20 24 11 13 1007.0 1006.9 -
25/04:30am 26.5 - - - - ESE 24 26 13 14 1006.8 1006.7 -
25/04:00am 26.3 - - - - ESE 24 30 13 16 1006.6 1006.5 -
25/03:30am 26.3 - - - - ESE 24 28 13 15 1006.6 1006.5 -
25/03:00am 26.3 - - - - ESE 22 26 12 14 1006.9 1006.8 -
25/02:30am 26.2 - - - - ESE 28 32 15 17 1006.9 1006.8 -
25/02:00am 26.3 - - - - ESE 28 32 15 17 1007.1 1007.0 -
25/01:30am 26.3 - - - - SE 30 35 16 19 1007.4 1007.3 -
25/01:00am 26.2 - - - - SE 28 32 15 17 1007.6 1007.5 -
25/12:30am 26.2 - - - - SE 30 33 16 18 1007.7 1007.6 -
25/12:00am 26.2 - - - - ESE 33 41 18 22 1008.1 1008.0 -
 
Date/Time
EST
Temp
°C
App
Temp
°C
Dew
Point
°C
Rel
Hum
%
Delta-T
°C
Wind Press
QNH
hPa
Press
MSL
hPa
Rain since
9am
mm
Dir  Spd
km/h
Gust
km/h
Spd
kts
Gust
kts
24/11:30pm 26.2 - - - - SE 37 44 20 24 1008.4 1008.3 -
24/11:00pm 26.2 - - - - ESE 37 41 20 22 1008.8 1008.7 -
24/10:30pm 26.5 - - - - SE 32 35 17 19 1009.0 1008.9 -
24/10:00pm 26.4 - - - - ESE 33 39 18 21 1009.1 1009.0 -
24/09:30pm 26.4 - - - - SE 33 37 18 20 1009.1 1009.0 -
24/09:00pm 25.2 - - - - SE 33 41 18 22 1009.0 1008.9 -
24/08:30pm 25.6 - - - - SE 35 48 19 26 1008.8 1008.7 -
24/08:00pm 26.5 - - - - SE 35 44 19 24 1008.4 1008.3 -
24/07:30pm 27.1 - - - - SE 32 37 17 20 1008.3 1008.2 -
24/07:00pm 27.2 - - - - SE 30 35 16 19 1008.1 1008.0 -
24/06:30pm 27.1 - - - - SSE 26 30 14 16 1007.9 1007.8 -
24/06:00pm 27.0 - - - - SSE 28 33 15 18 1007.5 1007.4 -
24/05:30pm 26.9 - - - - SSE 26 33 14 18 1007.3 1007.2 -
24/05:00pm 26.8 - - - - SSE 28 33 15 18 1007.0 1006.9 -
24/04:30pm 26.9 - - - - SSE 26 32 14 17 1007.0 1006.9 -
24/04:00pm 27.0 - - - - SSE 24 30 13 16 1007.0 1006.9 -
24/03:30pm 27.2 - - - - SE 24 28 13 15 1007.2 1007.1 -
24/03:00pm 27.0 - - - - SE 19 20 10 11 1007.3 1007.2 -
24/02:30pm 27.0 - - - - SE 19 24 10 13 1007.4 1007.3 -
24/02:00pm 27.0 - - - - ESE 19 22 10 12 1007.6 1007.5 -
24/01:30pm 27.0 - - - - ESE 20 26 11 14 1007.9 1007.8 -
24/01:00pm 26.9 - - - - SE 20 24 11 13 1008.2 1008.1 -
24/12:30pm 27.0 - - - - SE 20 24 11 13 1008.6 1008.5 -
24/12:00pm 26.9 - - - - SE 22 26 12 14 1009.1 1009.0 -
24/11:30am 26.7 - - - - SE 20 26 11 14 1009.4 1009.3 -
24/11:00am 26.7 - - - - SE 22 26 12 14 1009.8 1009.7 -
24/10:30am 26.8 - - - - SE 20 24 11 13 1010.1 1010.0 -
24/10:00am 26.8 - - - - SE 20 24 11 13 1010.2 1010.1 -
24/09:30am 26.7 - - - - SE 22 26 12 14 1010.4 1010.3 -
24/09:00am 26.9 - - - - SE 24 28 13 15 1010.4 1010.3 -
24/08:30am 26.7 - - - - SSE 20 30 11 16 1010.3 1010.2 -
24/08:00am 26.7 - - - - SE 20 26 11 14 1010.3 1010.2 -
24/07:30am 26.8 - - - - SE 26 30 14 16 1010.0 1009.9 -
24/07:00am 26.2 - - - - SSE 22 28 12 15 1009.9 1009.8 -
24/06:30am 26.8 - - - - SE 22 30 12 16 1009.6 1009.5 -
24/06:00am 26.5 - - - - SE 24 32 13 17 1009.4 1009.3 -
24/05:30am 26.5 - - - - SE 28 32 15 17 1009.0 1008.9 -
24/05:00am 26.5 - - - - SE 28 35 15 19 1008.9 1008.8 -
24/04:30am 26.5 - - - - SE 30 35 16 19 1008.8 1008.7 -
24/04:00am 26.5 - - - - SE 28 35 15 19 1008.7 1008.6 -
24/03:30am 26.6 - - - - ESE 28 33 15 18 1008.8 1008.7 -
24/03:00am 26.6 - - - - ESE 32 35 17 19 1008.9 1008.8 -
24/02:30am 26.8 - - - - ESE 33 39 18 21 1009.2 1009.1 -
24/02:00am 26.6 - - - - ESE 32 39 17 21 1009.5 1009.4 -
24/01:30am 26.5 - - - - ESE 35 39 19 21 1009.8 1009.7 -
24/01:00am 26.6 - - - - SE 35 41 19 22 1010.1 1010.0 -
24/12:30am 26.9 - - - - ESE 30 35 16 19 1010.4 1010.3 -
24/12:00am 26.8 - - - - ESE 30 35 16 19 1010.6 1010.5 -
 
Date/Time
EST
Temp
°C
App
Temp
°C
Dew
Point
°C
Rel
Hum
%
Delta-T
°C
Wind Press
QNH
hPa
Press
MSL
hPa
Rain since
9am
mm
Dir  Spd
km/h
Gust
km/h
Spd
kts
Gust
kts
23/11:30pm 26.9 - - - - SE 32 39 17 21 1010.9 1010.8 -
23/11:00pm 26.8 - - - - SE 35 39 19 21 1011.1 1011.0 -
23/10:30pm 26.8 - - - - SE 35 41 19 22 1011.4 1011.3 -
23/10:00pm 26.9 - - - - SE 35 43 19 23 1011.3 1011.2 -
23/09:30pm 26.9 - - - - SE 35 41 19 22 1010.9 1010.8 -
23/09:00pm 27.1 - - - - SE 39 43 21 23 1010.8 1010.7 -
23/08:30pm 27.1 - - - - SE 39 46 21 25 1010.6 1010.5 -
23/08:00pm 27.1 - - - - ESE 37 44 20 24 1010.4 1010.3 -
23/07:30pm 27.2 - - - - ESE 39 44 21 24 1010.1 1010.0 -
23/07:00pm 27.2 - - - - ESE 39 44 21 24 1010.2 1010.1 -
23/06:30pm 27.3 - - - - SE 37 43 20 23 1009.8 1009.7 -
23/06:00pm 27.3 - - - - ESE 37 44 20 24 1009.6 1009.5 -
23/05:30pm 27.3 - - - - SE 33 39 18 21 1009.4 1009.3 -
23/05:00pm 26.3 - - - - SE 28 32 15 17 1009.3 1009.2 -
23/04:30pm 26.0 - - - - SE 43 56 23 30 1009.0 1008.9 -
23/04:00pm 25.8 - - - - SSE 37 50 20 27 1009.0 1008.9 -
23/03:30pm 26.1 - - - - SE 30 41 16 22 1009.0 1008.9 -
23/03:00pm 26.7 - - - - ESE 30 37 16 20 1009.2 1009.1 -
23/02:30pm 27.3 - - - - SE 32 37 17 20 1009.4 1009.3 -
23/02:00pm 27.2 - - - - SE 33 39 18 21 1009.4 1009.3 -
23/01:30pm 26.6 - - - - SE 32 39 17 21 1009.5 1009.4 -
23/01:00pm 26.4 - - - - SSE 33 43 18 23 1009.4 1009.3 -
23/12:34pm 26.1 - - - - SSE 30 50 16 27 1009.3 1009.2 -
23/12:30pm 27.1 - - - - SE 28 32 15 17 1009.4 1009.3 -
23/12:00pm 27.0 - - - - SE 26 30 14 16 1009.6 1009.5 -
23/11:30am 26.9 - - - - SE 32 35 17 19 1009.6 1009.5 -
23/11:00am 27.0 - - - - SE 30 33 16 18 1010.1 1010.0 -
23/10:30am 27.1 - - - - SE 28 32 15 17 1010.5 1010.4 -
23/10:00am 27.0 - - - - SE 30 35 16 19 1010.2 1010.1 -
23/09:30am 27.1 - - - - SE 28 33 15 18 1010.5 1010.4 -
23/09:00am 26.9 - - - - SSE 26 33 14 18 1010.4 1010.3 -
23/08:30am 26.9 - - - - SE 30 35 16 19 1010.2 1010.1 -
23/08:00am 26.9 - - - - SE 32 37 17 20 1010.0 1009.9 -
23/07:30am 26.8 - - - - ESE 24 28 13 15 1010.2 1010.1 -
23/07:00am 26.9 - - - - SE 24 28 13 15 1009.8 1009.7 -
23/06:30am 26.8 - - - - SE 26 30 14 16 1009.4 1009.3 -
23/06:00am 26.7 - - - - SE 26 30 14 16 1009.3 1009.2 -
23/05:30am 26.7 - - - - SE 26 32 14 17 1008.9 1008.8 -
23/05:00am 26.7 - - - - SE 26 32 14 17 1008.9 1008.8 -
23/04:30am 26.6 - - - - SE 24 30 13 16 1008.9 1008.8 -
23/04:00am 26.7 - - - - SE 28 32 15 17 1008.4 1008.3 -
23/03:30am 26.7 - - - - ESE 30 33 16 18 1008.2 1008.1 -
23/03:00am 26.6 - - - - SE 32 35 17 19 1008.6 1008.5 -
23/02:30am 26.7 - - - - ESE 26 32 14 17 1008.9 1008.8 -
23/02:00am 26.6 - - - - ESE 28 32 15 17 1008.8 1008.7 -
23/01:30am 26.6 - - - - SE 28 33 15 18 1009.1 1009.0 -
23/01:00am 26.6 - - - - ESE 30 35 16 19 1009.6 1009.5 -
23/12:30am 26.7 - - - - ESE 30 33 16 18 1009.8 1009.7 -
23/12:00am 26.9 - - - - ESE 28 33 15 18 1010.2 1010.1 -
 
Date/Time
EST
Temp
°C
App
Temp
°C
Dew
Point
°C
Rel
Hum
%
Delta-T
°C
Wind Press
QNH
hPa
Press
MSL
hPa
Rain since
9am
mm
Dir  Spd
km/h
Gust
km/h
Spd
kts
Gust
kts
22/11:30pm 26.7 - - - - ESE 30 32 16 17 1010.3 1010.2 -
22/11:00pm 26.7 - - - - ESE 30 33 16 18 1010.5 1010.4 -

Other formats

Comma delimited format used in spreadsheet applications
http://www.bom.gov.au/fwo/IDQ60801/IDQ60801.94371.axf

JavaScript Object Notation format (JSON) in row-major order
http://www.bom.gov.au/fwo/IDQ60801/IDQ60801.94371.json

Data quality

Most of these data are generated automatically and are frequently updated. Quality checks on data are not normally performed. It is possible for incorrect values to appear. Refer to information at About Latest Weather Observations and please check the disclaimer before using these data.